Time;durP1;ratioP1;P1;durP2;ratioP2;P2;SDS_P1;SDS_P2;PMS_P1;PMS_P2;Temp;Humidity;BMP_temperature;BMP_pressure;BME280_temperature;BME280_humidity;BME280_pressure;Samples;Min_cycle;Max_cycle;Signal;HPM_P1;HPM_P2
2022/09/20 00:01:11;;;;;;;8.13;2.50;;;11.10;99.90;;;;;;5070186;28;20052;-66
2022/09/20 00:03:39;;;;;;;7.72;1.98;;;11.00;99.90;;;;;;5052529;28;20394;-66
2022/09/20 00:06:12;;;;;;;11.23;2.10;;;11.00;99.90;;;;;;5070000;28;20060;-64
2022/09/20 00:08:39;;;;;;;7.38;2.25;;;10.90;99.90;;;;;;5069725;28;20041;-66
2022/09/20 00:11:08;;;;;;;11.10;1.77;;;10.90;99.90;;;;;;5068956;28;20060;-65
2022/09/20 00:13:35;;;;;;;8.50;1.90;;;10.80;99.90;;;;;;5070734;28;20044;-67
2022/09/20 00:16:05;;;;;;;13.75;2.30;;;10.80;99.90;;;;;;5069821;28;20055;-66
2022/09/20 00:18:31;;;;;;;8.57;2.03;;;10.80;99.90;;;;;;5052411;28;20049;-66
2022/09/20 00:20:56;;;;;;;8.00;1.98;;;10.80;99.90;;;;;;5053017;28;20051;-66
2022/09/20 00:23:22;;;;;;;12.00;2.38;;;10.80;99.90;;;;;;5032466;28;20053;-65
2022/09/20 00:26:01;;;;;;;12.45;1.85;;;10.70;99.90;;;;;;5065798;28;20045;-67
2022/09/20 00:28:28;;;;;;;10.98;2.28;;;10.70;99.90;;;;;;5051833;28;20127;-66
2022/09/20 00:30:54;;;;;;;8.00;1.73;;;10.60;99.90;;;;;;5077017;28;20067;-66
2022/09/20 00:33:22;;;;;;;8.02;2.13;;;10.60;99.90;;;;;;5068403;28;20055;-66
2022/09/20 00:35:48;;;;;;;11.70;2.40;;;10.60;99.90;;;;;;5090495;28;20097;-66
2022/09/20 00:38:14;;;;;;;9.15;2.22;;;10.50;99.90;;;;;;5056790;28;20056;-66
2022/09/20 00:40:41;;;;;;;8.38;2.03;;;10.50;99.90;;;;;;5084684;28;20075;-66
2022/09/20 00:43:13;;;;;;;7.43;2.10;;;10.40;99.90;;;;;;5067826;28;20049;-66
2022/09/20 00:45:39;;;;;;;8.27;1.70;;;10.40;99.90;;;;;;5070239;28;20084;-66
2022/09/20 00:48:14;;;;;;;8.68;2.25;;;10.40;99.90;;;;;;5081948;28;20044;-66
2022/09/20 00:50:47;;;;;;;10.25;1.90;;;10.40;99.90;;;;;;5070644;28;20052;-66
2022/09/20 00:53:20;;;;;;;8.32;1.70;;;10.40;99.90;;;;;;5077805;28;20078;-67
2022/09/20 00:56:18;;;;;;;8.68;1.88;;;10.40;99.90;;;;;;5072254;28;20048;-66
2022/09/20 00:58:53;;;;;;;9.50;2.30;;;10.30;99.90;;;;;;5068327;28;20056;-67
2022/09/20 01:01:18;;;;;;;14.20;2.63;;;10.30;99.90;;;;;;5052680;28;20055;-66
2022/09/20 01:03:45;;;;;;;4.47;1.88;;;10.30;99.90;;;;;;5080739;28;20040;-66
2022/09/20 01:06:14;;;;;;;8.75;2.17;;;10.30;99.90;;;;;;5071376;28;20059;-71
2022/09/20 01:08:44;;;;;;;11.18;2.13;;;10.30;99.90;;;;;;5061354;28;20400;-66
2022/09/20 01:11:11;;;;;;;10.02;2.30;;;10.30;99.90;;;;;;5081660;28;20123;-67
2022/09/20 01:13:37;;;;;;;13.15;2.17;;;10.30;99.90;;;;;;5077617;28;20826;-66
2022/09/20 01:16:04;;;;;;;7.97;2.30;;;10.20;99.90;;;;;;5053391;28;20045;-73
2022/09/20 01:18:32;;;;;;;9.05;1.90;;;10.20;99.90;;;;;;5047160;28;20096;-66
2022/09/20 01:21:00;;;;;;;7.53;2.22;;;10.20;99.90;;;;;;5045795;28;20045;-66
2022/09/20 01:23:36;;;;;;;10.70;2.42;;;10.10;99.90;;;;;;5044548;28;20052;-66
2022/09/20 01:26:17;;;;;;;8.90;1.95;;;10.00;99.90;;;;;;5048376;28;20052;-71
2022/09/20 01:28:47;;;;;;;12.07;2.38;;;10.00;99.90;;;;;;5063563;28;20054;-66
2022/09/20 01:31:21;;;;;;;8.05;2.35;;;10.00;99.90;;;;;;5066879;28;20084;-65
2022/09/20 01:34:12;;;;;;;10.20;2.30;;;10.00;99.90;;;;;;5052488;28;20083;-65
2022/09/20 01:36:53;;;;;;;6.32;1.92;;;9.90;99.90;;;;;;5040764;28;20036;-66
2022/09/20 01:39:39;;;;;;;9.15;2.10;;;9.90;99.90;;;;;;5065969;28;20477;-66
2022/09/20 01:42:08;;;;;;;9.82;1.95;;;9.90;99.90;;;;;;5083850;28;20198;-72
2022/09/20 01:44:34;;;;;;;11.55;2.53;;;9.90;99.90;;;;;;5081641;28;20054;-67
2022/09/20 01:47:30;;;;;;;8.18;2.10;;;9.90;99.90;;;;;;5078156;28;20386;-66
2022/09/20 01:50:03;;;;;;;;;;;9.90;99.90;;;;;;5042924;28;20059;-67
2022/09/20 01:52:47;;;;;;;9.40;2.90;;;9.80;99.90;;;;;;5074477;28;19924;-66
2022/09/20 01:55:38;;;;;;;10.82;2.72;;;9.80;99.90;;;;;;5079298;28;20044;-66
2022/09/20 01:58:28;;;;;;;8.68;2.00;;;9.80;99.90;;;;;;5044038;28;20052;-68
2022/09/20 02:01:00;;;;;;;6.82;1.98;;;9.80;99.90;;;;;;5061125;28;20087;-66
2022/09/20 02:03:28;;;;;;;8.57;2.00;;;9.80;99.90;;;;;;5058390;28;20054;-66
2022/09/20 02:06:06;;;;;;;11.02;2.38;;;9.70;99.90;;;;;;5060574;28;20464;-70
2022/09/20 02:09:02;;;;;;;7.25;2.03;;;9.60;99.90;;;;;;5086668;28;20043;-66
2022/09/20 02:11:48;;;;;;;11.27;2.55;;;9.60;99.90;;;;;;5072683;28;20066;-66
2022/09/20 02:14:48;;;;;;;12.35;2.63;;;9.50;99.90;;;;;;5045899;28;20126;-64
2022/09/20 02:17:32;;;;;;;8.30;2.17;;;9.50;99.90;;;;;;5068358;28;20044;-65
2022/09/20 02:20:12;;;;;;;9.27;2.30;;;9.50;99.90;;;;;;5069228;28;20050;-66
2022/09/20 02:22:40;;;;;;;10.07;3.03;;;9.50;99.90;;;;;;5070380;28;20070;-65
2022/09/20 02:25:27;;;;;;;10.68;2.33;;;9.50;99.90;;;;;;5054480;28;20059;-68
2022/09/20 02:28:08;;;;;;;12.90;2.28;;;9.50;99.90;;;;;;5049018;28;20035;-67
2022/09/20 02:30:42;;;;;;;8.25;2.25;;;9.50;99.90;;;;;;5017791;28;20045;-66
2022/09/20 02:33:42;;;;;;;9.45;3.30;;;9.50;99.90;;;;;;5072493;28;20391;-66
2022/09/20 02:36:48;;;;;;;10.80;2.28;;;9.50;99.90;;;;;;5064064;28;20441;-67
2022/09/20 02:39:40;;;;;;;8.18;2.28;;;9.50;99.90;;;;;;4986979;28;20049;-66
2022/09/20 02:42:17;;;;;;;11.32;2.40;;;9.40;99.90;;;;;;5087474;28;20056;-68
2022/09/20 02:44:55;;;;;;;7.97;2.30;;;9.40;99.90;;;;;;5074480;28;20068;-68
2022/09/20 02:47:34;;;;;;;10.23;2.33;;;9.40;99.90;;;;;;5061875;28;20067;-66
2022/09/20 02:50:34;;;;;;;9.68;1.75;;;9.40;99.90;;;;;;5092509;28;20052;-66
2022/09/20 02:53:33;;;;;;;9.02;2.03;;;9.40;99.90;;;;;;5046323;28;20478;-69
2022/09/20 02:56:24;;;;;;;12.75;2.35;;;9.40;99.90;;;;;;5059947;28;20055;-66
2022/09/20 02:59:14;;;;;;;11.32;2.15;;;9.40;99.90;;;;;;5057158;28;20049;-66
2022/09/20 03:01:55;;;;;;;7.13;2.20;;;9.40;99.90;;;;;;5067436;28;20493;-65
2022/09/20 03:05:14;;;;;;;6.57;2.15;;;9.40;99.90;;;;;;5073580;28;20734;-66
2022/09/20 03:07:45;;;;;;;8.00;1.98;;;9.40;99.90;;;;;;5017983;28;20494;-66
2022/09/20 03:10:32;;;;;;;10.93;2.17;;;9.40;99.90;;;;;;5088267;28;20070;-66
2022/09/20 03:13:16;;;;;;;7.22;2.13;;;9.40;99.90;;;;;;5043434;28;20051;-65
2022/09/20 03:16:01;;;;;;;8.70;2.88;;;9.40;99.90;;;;;;5092032;28;20064;-67
2022/09/20 03:18:41;;;;;;;;;;;9.40;99.90;;;;;;5045644;28;20074;-65
2022/09/20 03:21:38;;;;;;;4.78;1.80;;;9.30;99.90;;;;;;5063719;28;19982;-67
2022/09/20 03:24:22;;;;;;;6.80;1.92;;;9.30;99.90;;;;;;5077250;28;20497;-67
2022/09/20 03:27:15;;;;;;;9.60;2.33;;;9.30;99.90;;;;;;5089129;28;20052;-66
2022/09/20 03:30:00;;;;;;;10.07;2.15;;;9.30;99.90;;;;;;5095983;28;20353;-65
2022/09/20 03:32:35;;;;;;;;;;;9.20;99.90;;;;;;5091426;28;20141;-65
2022/09/20 03:35:16;;;;;;;6.75;2.03;;;9.20;99.90;;;;;;5076417;28;20286;-66
2022/09/20 03:38:10;;;;;;;9.27;2.63;;;9.20;99.90;;;;;;5091012;28;20480;-65
2022/09/20 03:41:15;;;;;;;10.55;2.38;;;9.20;99.90;;;;;;5059911;28;20055;-66
2022/09/20 03:43:53;;;;;;;9.00;2.65;;;9.20;99.90;;;;;;5075805;28;20105;-69
2022/09/20 03:46:25;;;;;;;6.97;1.90;;;9.20;99.90;;;;;;5068405;28;20048;-66
2022/09/20 03:49:12;;;;;;;10.07;2.75;;;9.20;99.90;;;;;;5085224;28;20040;-65
2022/09/20 03:51:44;;;;;;;7.47;2.10;;;9.10;99.90;;;;;;5080929;28;20441;-66
2022/09/20 03:54:12;;;;;;;7.70;2.05;;;9.20;99.90;;;;;;5073108;28;20075;-66
2022/09/20 03:57:15;;;;;;;9.52;2.20;;;9.10;99.90;;;;;;5080517;28;20075;-66
2022/09/20 03:59:47;;;;;;;6.45;2.00;;;9.20;99.90;;;;;;5080906;28;20075;-65
2022/09/20 04:02:22;;;;;;;10.20;2.50;;;9.20;99.90;;;;;;5080988;28;20177;-66
2022/09/20 04:04:57;;;;;;;8.45;2.30;;;9.20;99.90;;;;;;5090333;28;20048;-66
2022/09/20 04:08:09;;;;;;;7.03;2.10;;;9.10;99.90;;;;;;5080371;28;20115;-72
2022/09/20 04:10:50;;;;;;;8.90;2.15;;;9.20;99.90;;;;;;5040065;28;20064;-66
2022/09/20 04:13:35;;;;;;;5.05;2.10;;;9.20;99.90;;;;;;5090579;28;20066;-67
2022/09/20 04:16:29;;;;;;;10.65;2.50;;;9.20;99.90;;;;;;5090996;28;20412;-67
2022/09/20 04:19:11;;;;;;;7.25;2.35;;;9.20;99.90;;;;;;5062825;28;20052;-66
2022/09/20 04:21:48;;;;;;;12.23;2.55;;;9.20;99.90;;;;;;5076414;28;20080;-66
2022/09/20 04:24:41;;;;;;;16.52;3.22;;;9.20;99.90;;;;;;5071308;28;20052;-66
2022/09/20 04:27:22;;;;;;;8.45;2.22;;;9.20;99.90;;;;;;5022500;28;20044;-66
2022/09/20 04:30:05;;;;;;;9.32;2.42;;;9.20;99.90;;;;;;5076283;28;20641;-66
2022/09/20 04:32:42;;;;;;;7.03;2.50;;;9.30;99.90;;;;;;5089573;28;20063;-65
2022/09/20 04:38:16;;;;;;;9.27;2.30;;;9.20;99.90;;;;;;5069400;28;20064;-67
2022/09/20 04:41:18;;;;;;;14.52;2.88;;;9.30;99.90;;;;;;5058749;28;20341;-67
2022/09/20 04:44:06;;;;;;;7.75;2.17;;;9.30;99.90;;;;;;5089825;28;20080;-69
2022/09/20 04:46:51;;;;;;;10.82;2.38;;;9.30;99.90;;;;;;5067079;28;20497;-66
2022/09/20 04:49:51;;;;;;;9.77;2.22;;;9.30;99.90;;;;;;5059031;28;20125;-65
2022/09/20 04:52:26;;;;;;;5.35;2.28;;;9.30;99.90;;;;;;5044856;28;20442;-66
2022/09/20 04:55:23;;;;;;;9.25;2.63;;;9.30;99.90;;;;;;5089864;28;20460;-66
2022/09/20 04:58:13;;;;;;;9.95;2.50;;;9.30;99.90;;;;;;5071113;28;20500;-68
2022/09/20 05:00:55;;;;;;;5.85;2.08;;;9.30;99.90;;;;;;5080122;28;20146;-67
2022/09/20 05:03:23;;;;;;;6.85;2.40;;;9.30;99.90;;;;;;5047634;28;20055;-66
2022/09/20 05:06:07;;;;;;;7.95;2.00;;;9.30;99.90;;;;;;5089903;28;20056;-66
2022/09/20 05:08:53;;;;;;;5.57;2.28;;;9.30;99.90;;;;;;5066175;28;20086;-67
2022/09/20 05:11:44;;;;;;;9.48;3.05;;;9.30;99.90;;;;;;5076135;28;20056;-66
2022/09/20 05:14:52;;;;;;;10.95;2.65;;;9.30;99.90;;;;;;5083827;28;20051;-66
2022/09/20 05:17:36;;;;;;;7.15;2.38;;;9.40;99.90;;;;;;5070818;28;20098;-65
2022/09/20 05:20:23;;;;;;;6.82;2.78;;;9.40;99.90;;;;;;5071555;28;20055;-66
2022/09/20 05:22:58;;;;;;;7.80;2.80;;;9.40;99.90;;;;;;5075748;28;20060;-67
2022/09/20 05:25:39;;;;;;;9.38;2.30;;;9.50;99.90;;;;;;5056920;28;20422;-66
2022/09/20 05:28:48;;;;;;;7.40;2.55;;;9.50;99.90;;;;;;5089693;28;20455;-67
2022/09/20 05:31:45;;;;;;;7.05;2.10;;;9.60;99.90;;;;;;5089982;28;20402;-66
2022/09/20 05:34:43;;;;;;;7.30;2.30;;;9.70;99.90;;;;;;5085800;28;20548;-66
2022/09/20 05:37:32;;;;;;;7.97;1.90;;;9.80;99.90;;;;;;5085831;28;20048;-66
2022/09/20 05:40:04;;;;;;;12.50;1.90;;;9.90;99.90;;;;;;5089121;28;20036;-66
2022/09/20 05:42:41;;;;;;;9.15;2.45;;;9.90;99.90;;;;;;5087516;28;20312;-66
2022/09/20 05:45:44;;;;;;;5.75;2.38;;;10.00;99.90;;;;;;5085100;28;20059;-66
2022/09/20 05:48:16;;;;;;;8.95;2.45;;;10.00;99.90;;;;;;5088767;28;20048;-66
2022/09/20 05:51:23;;;;;;;11.43;2.10;;;10.00;99.90;;;;;;5059787;28;20086;-66
2022/09/20 05:53:57;;;;;;;9.48;2.20;;;10.10;99.90;;;;;;5016067;28;20059;-66
2022/09/20 05:56:26;;;;;;;10.98;2.45;;;10.00;99.90;;;;;;5080978;28;20171;-66
2022/09/20 05:58:59;;;;;;;4.88;1.60;;;10.10;99.90;;;;;;5074476;28;20052;-69
2022/09/20 06:01:30;;;;;;;6.00;1.80;;;10.00;99.90;;;;;;5091538;28;20189;-67
2022/09/20 06:04:09;;;;;;;8.38;2.10;;;10.00;99.90;;;;;;5083540;28;20048;-66
2022/09/20 06:06:50;;;;;;;9.32;2.38;;;10.00;99.90;;;;;;5077698;28;20052;-67
2022/09/20 06:09:37;;;;;;;7.88;2.53;;;10.00;99.90;;;;;;5065528;28;20048;-66
2022/09/20 06:12:17;;;;;;;11.65;2.45;;;10.10;99.90;;;;;;5071989;28;20135;-66
2022/09/20 06:15:00;;;;;;;8.52;2.38;;;10.20;99.90;;;;;;5057399;28;20049;-67
2022/09/20 06:18:03;;;;;;;12.90;2.25;;;10.20;99.90;;;;;;5054112;28;20044;-70
2022/09/20 06:20:37;;;;;;;10.75;2.60;;;10.30;99.90;;;;;;5073249;28;20051;-66
2022/09/20 06:23:04;;;;;;;5.68;1.80;;;10.40;99.90;;;;;;5071942;28;20059;-67
2022/09/20 06:25:55;;;;;;;12.23;2.25;;;10.50;99.90;;;;;;5063285;28;20052;-66
2022/09/20 06:28:22;;;;;;;6.78;1.90;;;10.70;99.90;;;;;;5058955;28;20048;-69
2022/09/20 06:30:50;;;;;;;6.82;1.70;;;10.80;99.90;;;;;;5067695;28;20072;-68
2022/09/20 06:33:27;;;;;;;8.38;2.20;;;10.90;99.90;;;;;;5092711;28;20048;-67
2022/09/20 06:42:05;;;;;;;9.68;2.17;;;11.00;99.90;;;;;;5079859;28;20040;-66
2022/09/20 06:44:31;;;;;;;8.50;2.38;;;11.00;99.90;;;;;;5078906;28;20040;-69
2022/09/20 06:46:57;;;;;;;5.85;2.30;;;11.00;99.90;;;;;;5071670;28;20126;-68
2022/09/20 06:49:27;;;;;;;7.55;2.65;;;11.00;99.90;;;;;;5072257;28;20052;-68
2022/09/20 06:51:54;;;;;;;6.60;2.50;;;10.90;99.90;;;;;;5087510;28;20448;-69
2022/09/20 06:54:20;;;;;;;7.72;2.20;;;10.90;99.90;;;;;;5072266;28;20052;-68
2022/09/20 06:56:48;;;;;;;9.88;2.08;;;10.90;99.90;;;;;;5054209;28;20131;-75
2022/09/20 06:59:14;;;;;;;6.45;1.55;;;10.90;99.90;;;;;;5087596;28;20080;-68
2022/09/20 07:01:40;;;;;;;4.85;1.80;;;10.90;99.90;;;;;;5045735;28;20080;-69
2022/09/20 07:04:06;;;;;;;9.63;2.65;;;10.90;99.90;;;;;;5070000;28;20048;-66
2022/09/20 07:06:32;;;;;;;5.90;1.77;;;11.00;99.90;;;;;;5053911;28;20052;-68
2022/09/20 07:08:58;;;;;;;9.00;2.33;;;11.00;99.90;;;;;;5062846;28;20485;-68
2022/09/20 07:11:24;;;;;;;6.50;2.22;;;11.10;99.90;;;;;;5037655;28;20044;-67
2022/09/20 07:13:52;;;;;;;5.50;1.85;;;11.20;99.90;;;;;;5053081;28;20044;-65
2022/09/20 07:16:19;;;;;;;7.68;2.00;;;11.20;99.90;;;;;;5052874;28;20048;-66
2022/09/20 07:18:45;;;;;;;6.78;1.90;;;11.40;99.90;;;;;;5069469;28;20082;-67
2022/09/20 07:21:13;;;;;;;6.43;1.88;;;11.40;99.90;;;;;;5045054;28;20110;-67
2022/09/20 07:23:38;;;;;;;6.43;1.65;;;11.50;99.90;;;;;;5066464;28;20119;-67
2022/09/20 07:26:05;;;;;;;7.03;1.60;;;11.70;99.90;;;;;;5070399;28;20148;-68
2022/09/20 07:28:33;;;;;;;7.35;2.13;;;11.80;99.90;;;;;;5053351;28;20456;-67
2022/09/20 07:31:00;;;;;;;6.85;1.77;;;11.90;99.90;;;;;;5069876;28;20116;-68
2022/09/20 07:33:26;;;;;;;6.43;2.00;;;12.10;99.90;;;;;;5071271;28;20466;-69
2022/09/20 07:35:53;;;;;;;8.07;1.90;;;12.20;99.90;;;;;;5038519;28;20091;-74
2022/09/20 07:38:20;;;;;;;8.38;1.98;;;12.30;99.90;;;;;;5039375;28;20052;-77
2022/09/20 07:40:56;;;;;;;5.57;2.17;;;12.60;99.90;;;;;;5022043;28;20086;-70
2022/09/20 07:43:23;;;;;;;5.95;1.77;;;13.80;99.90;;;;;;5073468;28;20098;-70
2022/09/20 07:45:54;;;;;;;8.57;2.15;;;15.20;99.90;;;;;;5052044;28;20052;-71
2022/09/20 07:48:34;;;;;;;3.85;1.67;;;16.70;99.90;;;;;;5052860;28;20048;-71
2022/09/20 07:51:14;;;;;;;5.72;1.58;;;18.10;99.90;;;;;;5079696;28;20502;-70
2022/09/20 07:53:40;;;;;;;7.05;1.80;;;19.30;99.90;;;;;;5073998;28;20046;-71
2022/09/20 07:56:07;;;;;;;6.70;1.80;;;20.40;99.90;;;;;;5053396;28;20508;-72
2022/09/20 07:58:34;;;;;;;5.93;1.52;;;;;;;;;;5052697;28;20067;-72
2022/09/20 08:01:03;;;;;;;5.75;1.33;;;21.30;99.90;;;;;;5070228;28;20048;-73
2022/09/20 08:03:30;;;;;;;4.57;1.23;;;22.90;97.50;;;;;;5086558;28;20056;-72
2022/09/20 08:06:01;;;;;;;4.82;1.42;;;23.40;97.80;;;;;;5054537;28;20144;-78
2022/09/20 08:08:30;;;;;;;5.88;1.50;;;23.60;96.80;;;;;;5085545;28;20033;-71
2022/09/20 08:11:14;;;;;;;5.57;1.40;;;23.70;95.20;;;;;;5070591;28;20059;-76
2022/09/20 08:13:48;;;;;;;5.47;1.17;;;24.10;95.00;;;;;;5059980;28;20124;-73
2022/09/20 08:16:14;;;;;;;1.90;0.85;;;24.20;95.10;;;;;;5085371;28;20084;-68
2022/09/20 08:18:47;;;;;;;5.28;1.40;;;24.40;93.40;;;;;;5070248;28;20465;-70
2022/09/20 08:21:13;;;;;;;3.92;1.27;;;24.20;94.20;;;;;;5069573;28;20066;-71
2022/09/20 08:23:42;;;;;;;6.13;1.70;;;23.70;92.70;;;;;;5069464;28;20040;-69
2022/09/20 08:26:11;;;;;;;6.75;1.70;;;23.20;92.50;;;;;;5054298;28;20398;-71
2022/09/20 08:28:38;;;;;;;5.05;1.40;;;23.20;93.00;;;;;;5051820;28;20405;-69
2022/09/20 08:31:09;;;;;;;5.97;1.77;;;23.80;92.90;;;;;;5077672;28;20084;-69
2022/09/20 08:33:36;;;;;;;5.18;1.48;;;24.20;91.70;;;;;;5053490;28;20071;-69
2022/09/20 08:36:06;;;;;;;5.13;1.42;;;24.40;91.50;;;;;;5085448;28;20052;-69
2022/09/20 08:38:33;;;;;;;5.55;1.20;;;24.80;91.20;;;;;;5054524;28;20139;-70
2022/09/20 08:41:26;;;;;;;6.20;1.55;;;24.60;91.40;;;;;;5079298;28;20434;-76
2022/09/20 08:44:25;;;;;;;7.32;1.40;;;23.80;90.60;;;;;;5090125;28;20231;-70
2022/09/20 08:47:04;;;;;;;4.40;1.15;;;22.80;91.40;;;;;;5087592;28;20056;-71
2022/09/20 08:49:32;;;;;;;3.45;1.10;;;21.30;91.90;;;;;;5053968;28;20070;-70
2022/09/20 08:51:59;;;;;;;2.58;1.15;;;20.40;92.30;;;;;;5069930;28;20137;-68
2022/09/20 08:54:26;;;;;;;5.65;1.55;;;20.00;93.20;;;;;;5035397;28;20405;-68
2022/09/20 08:56:52;;;;;;;3.38;1.17;;;19.60;93.50;;;;;;5072129;28;20056;-67
2022/09/20 08:59:21;;;;;;;2.65;1.08;;;19.20;94.10;;;;;;5089413;28;20384;-68
2022/09/20 09:01:48;;;;;;;2.53;0.90;;;19.00;94.50;;;;;;5064155;28;20128;-75
2022/09/20 09:04:22;;;;;;;1.75;0.80;;;19.00;94.50;;;;;;5089683;28;20121;-69
2022/09/20 09:06:51;;;;;;;3.05;1.10;;;19.30;94.00;;;;;;5090073;28;20048;-68
2022/09/20 09:09:26;;;;;;;4.28;1.25;;;19.30;93.80;;;;;;5071167;28;20378;-70
2022/09/20 09:11:54;;;;;;;3.53;1.00;;;19.10;93.70;;;;;;5064437;28;20052;-69
2022/09/20 09:17:10;;;;;;;1.75;0.73;;;18.80;94.00;;;;;;5089319;28;20056;-70
2022/09/20 09:19:55;;;;;;;2.25;1.00;;;18.70;94.50;;;;;;5055082;28;20366;-69
2022/09/20 09:22:48;;;;;;;3.88;1.15;;;18.70;94.30;;;;;;5081716;28;20132;-67
2022/09/20 09:25:15;;;;;;;2.45;1.40;;;18.60;94.50;;;;;;5057051;28;20060;-69
2022/09/20 09:28:21;;;;;;;2.55;1.10;;;18.50;94.70;;;;;;5054354;28;20051;-69
2022/09/20 09:30:47;;;;;;;4.72;1.25;;;18.50;95.40;;;;;;5052212;28;20482;-78
2022/09/20 09:33:19;;;;;;;5.68;1.33;;;18.40;95.70;;;;;;5070094;28;20056;-72
2022/09/20 09:36:34;;;;;;;4.55;1.10;;;18.20;95.90;;;;;;5067604;28;20094;-73
2022/09/20 09:39:39;;;;;;;6.93;1.35;;;18.10;96.40;;;;;;5018009;28;20042;-69
2022/09/20 09:42:21;;;;;;;;;;;18.00;96.20;;;;;;4975168;28;20619;-71
2022/09/20 09:44:49;;;;;;;6.13;1.10;;;17.90;97.10;;;;;;4991370;28;20904;-69
2022/09/20 09:47:28;;;;;;;5.50;1.33;;;17.90;96.90;;;;;;5022494;28;20044;-71
2022/09/20 09:49:58;;;;;;;3.72;1.00;;;17.80;95.80;;;;;;5072927;28;20132;-70
2022/09/20 09:52:26;;;;;;;4.82;1.20;;;17.80;95.60;;;;;;5077027;28;20045;-68
2022/09/20 09:54:58;;;;;;;7.00;1.50;;;17.70;95.50;;;;;;5076832;28;20049;-70
2022/09/20 09:57:52;;;;;;;4.75;1.25;;;17.70;95.60;;;;;;5062101;28;20162;-70
2022/09/20 10:00:23;;;;;;;3.30;1.30;;;17.80;95.70;;;;;;5082109;28;20379;-69
2022/09/20 10:02:59;;;;;;;6.53;1.38;;;18.00;95.30;;;;;;5068097;28;20090;-71
2022/09/20 10:05:34;;;;;;;2.85;0.98;;;18.10;95.30;;;;;;5082731;28;20056;-69
2022/09/20 10:08:37;;;;;;;5.50;1.27;;;18.10;94.40;;;;;;5068572;28;20032;-68
2022/09/20 10:11:40;;;;;;;3.70;1.27;;;18.20;94.40;;;;;;5070307;28;20059;-70
2022/09/20 10:14:40;;;;;;;3.95;1.38;;;18.20;94.90;;;;;;5048456;28;20151;-69
2022/09/20 10:17:16;;;;;;;4.45;1.20;;;18.30;94.40;;;;;;5067493;28;20123;-69
2022/09/20 10:20:01;;;;;;;5.55;1.38;;;18.40;95.20;;;;;;5035740;28;20048;-69
2022/09/20 10:22:39;;;;;;;5.13;1.42;;;18.40;94.80;;;;;;5070012;28;20127;-67
2022/09/20 10:25:30;;;;;;;4.22;1.35;;;18.50;94.60;;;;;;5083239;28;20059;-67
2022/09/20 10:28:19;;;;;;;9.18;1.40;;;18.70;94.50;;;;;;5044528;28;20505;-70
2022/09/20 10:31:03;;;;;;;9.82;1.83;;;18.70;94.60;;;;;;5063086;28;20511;-68
2022/09/20 10:34:04;;;;;;;6.07;1.48;;;18.60;94.70;;;;;;5090619;28;20048;-67
2022/09/20 10:36:52;;;;;;;6.93;1.60;;;18.60;94.60;;;;;;5073640;28;20093;-66
2022/09/20 10:39:40;;;;;;;9.52;1.92;;;18.50;94.70;;;;;;5089493;28;20101;-66
2022/09/20 10:45:36;;;;;;;7.00;1.60;;;18.30;94.50;;;;;;5064311;28;20176;-69
2022/09/20 10:48:16;;;;;;;5.88;1.77;;;18.20;94.50;;;;;;5067378;28;20085;-69
2022/09/20 10:51:20;;;;;;;5.65;1.30;;;18.20;94.80;;;;;;5072029;28;20456;-66
2022/09/20 10:54:13;;;;;;;6.00;1.58;;;18.20;94.90;;;;;;5051522;28;20060;-66
2022/09/20 10:56:43;;;;;;;6.35;1.58;;;18.10;95.10;;;;;;5051656;28;20497;-66
2022/09/20 10:59:34;;;;;;;4.93;1.60;;;18.00;95.40;;;;;;5069943;28;20044;-65
2022/09/20 11:02:15;;;;;;;8.43;1.50;;;18.00;94.90;;;;;;5070047;28;20052;-65
2022/09/20 11:05:03;;;;;;;9.98;1.80;;;17.90;94.40;;;;;;5075154;28;20055;-66
2022/09/20 11:07:55;;;;;;;4.32;1.40;;;18.00;94.70;;;;;;5068902;28;20048;-66
2022/09/20 11:10:34;;;;;;;5.55;1.30;;;17.90;93.90;;;;;;5058634;28;20067;-73
2022/09/20 11:13:27;;;;;;;5.65;1.42;;;17.90;93.70;;;;;;5067548;28;20091;-66
2022/09/20 11:15:59;;;;;;;6.47;1.40;;;17.90;94.10;;;;;;5058826;28;20497;-69
2022/09/20 11:18:41;;;;;;;5.13;1.70;;;17.90;94.10;;;;;;5050753;28;20516;-67
2022/09/20 11:21:29;;;;;;;4.13;1.50;;;17.90;94.10;;;;;;5051955;28;20052;-67
2022/09/20 11:24:36;;;;;;;7.75;1.70;;;18.00;93.20;;;;;;5069714;28;20112;-66
2022/09/20 11:27:14;;;;;;;4.38;1.50;;;18.00;93.70;;;;;;5045035;28;20056;-67
2022/09/20 11:29:53;;;;;;;7.43;1.77;;;17.90;93.40;;;;;;5068763;28;20698;-68
2022/09/20 11:33:00;;;;;;;6.07;1.48;;;18.00;93.30;;;;;;5051458;28;20567;-66
2022/09/20 11:35:33;;;;;;;4.63;1.10;;;18.00;93.20;;;;;;5004986;28;20049;-68
2022/09/20 11:38:28;;;;;;;6.65;1.42;;;18.10;92.60;;;;;;5051961;28;20048;-67
2022/09/20 11:41:20;;;;;;;6.00;1.52;;;18.10;92.80;;;;;;5084467;28;20131;-66
2022/09/20 11:43:48;;;;;;;6.20;1.35;;;18.30;94.70;;;;;;5081343;28;20043;-67
2022/09/20 11:46:35;;;;;;;4.72;1.67;;;18.40;95.10;;;;;;5035369;28;20057;-65
2022/09/20 11:49:08;;;;;;;6.57;1.83;;;18.20;95.00;;;;;;5087598;28;20500;-67
2022/09/20 11:51:45;;;;;;;9.25;1.73;;;18.20;95.40;;;;;;5088149;28;20055;-65
2022/09/20 11:54:26;;;;;;;6.00;1.50;;;18.20;94.40;;;;;;5075120;28;20576;-68
2022/09/20 11:56:56;;;;;;;4.80;1.38;;;18.20;95.00;;;;;;5086138;28;20063;-64
2022/09/20 11:59:32;;;;;;;6.20;1.65;;;18.00;94.50;;;;;;5077621;28;20064;-68
2022/09/20 12:02:01;;;;;;;5.95;1.60;;;17.90;94.20;;;;;;5065230;28;20059;-65
2022/09/20 12:04:31;;;;;;;6.85;1.73;;;17.80;94.70;;;;;;5082248;28;20048;-65
2022/09/20 12:07:19;;;;;;;6.65;1.63;;;17.80;95.40;;;;;;5077386;28;20614;-66
2022/09/20 12:09:59;;;;;;;7.95;1.40;;;17.70;95.10;;;;;;5074447;28;20052;-70
2022/09/20 12:12:44;;;;;;;5.40;1.20;;;17.60;95.60;;;;;;5069650;28;20124;-68
2022/09/20 12:15:28;;;;;;;4.28;1.52;;;17.50;95.50;;;;;;5068211;28;20173;-66
2022/09/20 12:17:56;;;;;;;6.20;1.30;;;17.40;95.60;;;;;;5047434;28;20506;-66
2022/09/20 12:20:34;;;;;;;7.63;2.10;;;17.30;95.90;;;;;;5070719;28;20064;-68
2022/09/20 12:23:37;;;;;;;5.82;1.33;;;17.40;95.80;;;;;;5050688;28;20190;-68
2022/09/20 12:26:05;;;;;;;4.45;1.58;;;17.40;95.80;;;;;;5052287;28;20120;-66
2022/09/20 12:28:39;;;;;;;6.88;1.27;;;17.20;95.90;;;;;;5070489;28;20405;-64
2022/09/20 12:31:30;;;;;;;6.43;1.60;;;17.30;96.20;;;;;;5071301;28;20141;-65
2022/09/20 12:34:14;;;;;;;8.15;1.55;;;17.30;95.10;;;;;;5056372;28;20056;-65
2022/09/20 12:36:42;;;;;;;3.90;1.13;;;17.40;95.10;;;;;;5060215;28;20066;-66
2022/09/20 12:39:11;;;;;;;6.07;1.20;;;17.50;94.20;;;;;;5070792;28;20561;-65
2022/09/20 12:42:03;;;;;;;5.68;1.45;;;17.50;94.40;;;;;;5071498;28;20036;-65
2022/09/20 12:44:50;;;;;;;5.95;1.35;;;17.60;94.50;;;;;;5057821;28;20401;-66
2022/09/20 12:47:23;;;;;;;4.07;1.30;;;17.80;94.00;;;;;;5075973;28;20137;-66
2022/09/20 12:52:57;;;;;;;6.82;1.50;;;17.90;94.40;;;;;;5089939;28;20063;-66
2022/09/20 12:55:32;;;;;;;3.78;1.75;;;17.90;94.70;;;;;;5080225;28;20071;-68
2022/09/20 12:58:18;;;;;;;5.72;1.55;;;17.90;94.70;;;;;;5077476;28;20500;-65
2022/09/20 13:00:48;;;;;;;8.77;1.40;;;18.00;95.50;;;;;;5074320;28;20048;-65
2022/09/20 13:03:14;;;;;;;6.25;1.17;;;18.00;95.20;;;;;;5071428;28;20048;-66
2022/09/20 13:05:45;;;;;;;3.72;1.27;;;18.00;94.80;;;;;;5089511;28;20411;-66
2022/09/20 13:08:21;;;;;;;5.25;1.30;;;18.00;95.00;;;;;;5067106;28;20080;-66
2022/09/20 13:10:56;;;;;;;5.65;1.30;;;18.00;95.20;;;;;;5062985;28;20488;-65
2022/09/20 13:13:42;;;;;;;5.43;1.50;;;18.00;94.50;;;;;;5066038;28;20074;-65
2022/09/20 13:16:25;;;;;;;5.95;1.50;;;17.90;94.30;;;;;;5069615;28;20083;-66
2022/09/20 13:19:32;;;;;;;6.80;1.50;;;17.90;95.80;;;;;;5071745;28;20074;-66
2022/09/20 13:22:22;;;;;;;4.82;1.35;;;18.00;96.80;;;;;;5064149;28;20053;-66
2022/09/20 13:24:50;;;;;;;6.20;1.60;;;18.10;96.30;;;;;;5067509;28;20052;-67
2022/09/20 13:27:36;;;;;;;6.55;1.77;;;18.10;96.50;;;;;;5069383;28;20036;-66
2022/09/20 13:30:20;;;;;;;7.13;1.40;;;18.00;96.10;;;;;;5068282;28;20063;-65
2022/09/20 13:32:47;;;;;;;8.00;1.75;;;17.90;96.10;;;;;;5084185;28;20087;-64
2022/09/20 13:35:22;;;;;;;8.05;1.73;;;17.90;95.80;;;;;;5073202;28;20052;-64
2022/09/20 13:38:04;;;;;;;6.05;1.30;;;17.80;95.60;;;;;;5071571;28;20044;-66
2022/09/20 13:40:41;;;;;;;4.38;1.30;;;17.80;96.30;;;;;;5054337;28;20055;-66
2022/09/20 13:43:23;;;;;;;6.72;1.45;;;17.80;96.10;;;;;;5055604;28;20040;-67
2022/09/20 13:45:56;;;;;;;3.30;1.30;;;17.70;95.80;;;;;;5053537;28;20049;-64
2022/09/20 13:48:26;;;;;;;4.97;1.25;;;17.70;95.60;;;;;;5069082;28;20091;-64
2022/09/20 13:50:53;;;;;;;5.15;1.50;;;17.60;95.60;;;;;;5084267;28;20048;-65
2022/09/20 13:53:22;;;;;;;4.68;1.48;;;17.60;96.00;;;;;;5069775;28;20076;-66
2022/09/20 13:55:47;;;;;;;3.95;1.17;;;17.60;95.50;;;;;;5054307;28;20098;-65
2022/09/20 13:58:36;;;;;;;4.95;1.20;;;17.60;95.30;;;;;;5070552;28;20048;-70
2022/09/20 14:01:04;;;;;;;4.93;1.38;;;17.60;95.60;;;;;;5056299;28;20052;-65
2022/09/20 14:03:33;;;;;;;5.07;1.38;;;17.60;95.70;;;;;;5068674;28;20045;-65
2022/09/20 14:06:01;;;;;;;2.15;1.00;;;17.60;95.40;;;;;;5068686;28;20078;-64
2022/09/20 14:08:35;;;;;;;3.05;1.00;;;17.50;95.10;;;;;;5049468;28;20097;-66